Terminal Aerodrome Forecast
Issued by NWS

Home | Current Version | Previous Version | Text Only | Print | Product List | Glossary On
Versions: 1 2 3 4 5 6 7 8 9 10 11 12 13 14 15
000
FTUS44 KEPZ 180500
TAFDMN
TAF
KDMN 180522Z 1806/1906 02009KT P6SM -SHRA SCT025 BKN050
     FM180800 05008KT 6SM -SHRA SCT008 BKN025
      TEMPO 1813/1817 2SM +SHRA BKN008
     FM181700 12008KT 6SM -SHRA SCT015 OVC025
     FM182200 04005KT P6SM VCSH SCT015 OVC025
     FM190200 25007KT P6SM VCSH SCT025 BKN040=

USA.gov is the U.S. government's official web portal to all federal, state and local government web resources and services.